createdAt,value
2018-05-17T00:00:55.929Z,3.10
2018-05-17T00:03:23.971Z,2.75
2018-05-17T00:05:52.025Z,2.60
2018-05-17T00:08:20.106Z,2.60
2018-05-17T00:10:48.406Z,2.90
2018-05-17T00:13:16.703Z,2.80
2018-05-17T00:15:45.007Z,2.90
2018-05-17T00:18:13.403Z,2.80
2018-05-17T00:20:41.690Z,2.42
2018-05-17T00:23:09.887Z,3.00
2018-05-17T00:25:38.190Z,3.28
2018-05-17T00:28:06.285Z,2.92
2018-05-17T00:30:34.481Z,2.95
2018-05-17T00:33:02.690Z,2.87
2018-05-17T00:35:30.862Z,3.15
2018-05-17T00:37:58.962Z,2.75
2018-05-17T00:40:27.163Z,3.00
2018-05-17T00:42:55.243Z,2.90
2018-05-17T00:45:23.443Z,3.10
2018-05-17T00:47:51.462Z,2.90
2018-05-17T00:50:19.724Z,2.78
2018-05-17T00:52:47.925Z,2.85
2018-05-17T00:55:16.227Z,3.55
2018-05-17T00:57:44.305Z,2.90
2018-05-17T01:00:12.605Z,2.67
2018-05-17T01:02:40.801Z,2.58
2018-05-17T01:05:09.001Z,3.15
2018-05-17T01:07:37.285Z,2.85
2018-05-17T01:10:05.484Z,3.10
2018-05-17T01:12:33.684Z,2.70
2018-05-17T01:15:01.881Z,2.87
2018-05-17T01:17:30.071Z,2.92
2018-05-17T01:19:58.266Z,2.62
2018-05-17T01:22:26.448Z,2.65
2018-05-17T01:24:54.642Z,3.00
2018-05-17T01:27:22.844Z,3.05
2018-05-17T01:29:51.082Z,3.22
2018-05-17T01:32:19.445Z,3.10
2018-05-17T01:34:47.725Z,2.60
2018-05-17T01:37:16.033Z,2.60
2018-05-17T01:39:44.322Z,2.53
2018-05-17T01:42:12.660Z,2.30
2018-05-17T01:44:40.927Z,3.05
2018-05-17T01:47:09.125Z,2.30
2018-05-17T01:49:37.403Z,2.55
2018-05-17T01:52:05.506Z,2.37
2018-05-17T01:54:33.606Z,2.37
2018-05-17T01:57:01.793Z,2.87
2018-05-17T01:59:29.884Z,2.80
2018-05-17T02:01:58.088Z,2.45
2018-05-17T02:04:26.166Z,3.12
2018-05-17T02:06:54.357Z,2.80
2018-05-17T02:09:22.569Z,2.50
2018-05-17T02:11:50.767Z,2.62
2018-05-17T02:14:18.942Z,2.67
2018-05-17T02:16:47.248Z,2.30
2018-05-17T02:19:15.351Z,2.30
2018-05-17T02:21:43.633Z,2.10
2018-05-17T02:24:12.023Z,2.65
2018-05-17T02:26:40.224Z,2.10
2018-05-17T02:29:08.424Z,2.80
2018-05-17T02:31:36.623Z,2.53
2018-05-17T02:34:04.708Z,2.90
2018-05-17T02:36:32.904Z,2.50
2018-05-17T02:39:01.102Z,2.47
2018-05-17T02:41:29.302Z,2.62
2018-05-17T02:43:57.383Z,2.55
2018-05-17T02:46:25.583Z,2.50
2018-05-17T02:48:53.862Z,1.90
2018-05-17T02:51:22.163Z,2.17
2018-05-17T02:53:50.568Z,2.30
2018-05-17T02:56:18.710Z,2.35
2018-05-17T02:58:47.065Z,2.85
2018-05-17T03:01:15.366Z,2.35
2018-05-17T03:03:43.569Z,2.92
2018-05-17T03:06:11.747Z,2.20
2018-05-17T03:08:39.948Z,2.45
2018-05-17T03:11:08.129Z,3.80
2018-05-17T03:13:36.230Z,2.58
2018-05-17T03:16:04.424Z,3.20
2018-05-17T03:18:32.607Z,3.03
2018-05-17T03:21:00.809Z,3.05
2018-05-17T03:23:28.907Z,3.70
2018-05-17T03:25:57.104Z,3.45
2018-05-17T03:28:25.282Z,3.92
2018-05-17T03:30:53.584Z,3.30
2018-05-17T03:33:21.882Z,4.05
2018-05-17T03:35:50.186Z,3.40
2018-05-17T03:38:18.285Z,3.08
2018-05-17T03:40:46.572Z,3.67
2018-05-17T03:43:14.866Z,3.37
2018-05-17T03:45:43.067Z,3.12
2018-05-17T03:48:11.254Z,2.22
2018-05-17T03:50:39.447Z,2.58
2018-05-17T03:53:07.643Z,3.37
2018-05-17T03:55:35.848Z,3.12
2018-05-17T03:58:03.928Z,2.20
2018-05-17T04:00:32.030Z,2.95
2018-05-17T04:03:00.209Z,2.95
2018-05-17T04:05:28.312Z,2.40
2018-05-17T04:07:56.508Z,2.78
2018-05-17T04:10:24.584Z,2.33
2018-05-17T04:12:52.890Z,2.85
2018-05-17T04:15:21.083Z,2.92
2018-05-17T04:17:49.283Z,2.67
2018-05-17T04:20:17.368Z,2.80
2018-05-17T04:22:45.570Z,2.80
2018-05-17T04:25:13.762Z,3.40
2018-05-17T04:27:41.949Z,3.35
2018-05-17T04:30:10.373Z,2.90
2018-05-17T04:32:38.543Z,3.67
2018-05-17T04:35:06.629Z,2.65
2018-05-17T04:37:34.830Z,2.80
2018-05-17T04:40:03.035Z,3.28
2018-05-17T04:42:31.229Z,2.95
2018-05-17T04:44:59.410Z,2.83
2018-05-17T04:47:27.624Z,2.37
2018-05-17T04:49:55.900Z,6.80
2018-05-17T04:52:24.107Z,3.10
2018-05-17T04:54:52.407Z,2.50
2018-05-17T04:57:20.704Z,2.33
2018-05-17T04:59:48.991Z,2.67
2018-05-17T05:02:17.182Z,2.33
2018-05-17T05:04:45.175Z,1.95
2018-05-17T05:07:13.362Z,2.35
2018-05-17T05:09:41.473Z,2.22
2018-05-17T05:12:09.663Z,2.10
2018-05-17T05:14:37.750Z,3.47
2018-05-17T05:17:05.956Z,2.58
2018-05-17T05:19:34.028Z,2.85
2018-05-17T05:22:02.324Z,2.60
2018-05-17T05:24:30.532Z,2.80
2018-05-17T05:26:58.721Z,3.65
2018-05-17T05:29:27.030Z,3.50
2018-05-17T05:31:55.309Z,4.10
2018-05-17T05:34:23.613Z,2.62
2018-05-17T05:36:51.898Z,2.67
2018-05-17T05:39:20.212Z,2.10
2018-05-17T05:41:48.507Z,2.28
2018-05-17T05:44:16.695Z,2.00
2018-05-17T05:46:44.793Z,2.12
2018-05-17T05:49:12.822Z,2.70
2018-05-17T05:51:41.084Z,2.67
2018-05-17T05:54:09.271Z,2.22
2018-05-17T05:56:37.469Z,2.08
2018-05-17T05:59:05.667Z,2.50
2018-05-17T06:01:33.848Z,2.58
2018-05-17T06:04:02.036Z,2.70
2018-05-17T06:06:30.344Z,2.30
2018-05-17T06:08:58.633Z,3.22
2018-05-17T06:11:26.726Z,3.20
2018-05-17T06:13:55.125Z,3.75
2018-05-17T06:16:23.421Z,3.80
2018-05-17T06:18:52.438Z,3.50
2018-05-17T06:21:21.089Z,4.03
2018-05-17T06:23:49.550Z,3.70
2018-05-17T06:26:17.750Z,3.70
2018-05-17T06:28:45.939Z,3.90
2018-05-17T06:31:14.031Z,3.35
2018-05-17T06:33:42.421Z,3.60
2018-05-17T06:36:10.413Z,3.58
2018-05-17T06:38:38.815Z,3.60
2018-05-17T06:41:07.109Z,3.40
2018-05-17T06:43:35.404Z,3.25
2018-05-17T06:46:03.601Z,3.53
2018-05-17T06:48:31.892Z,3.70
2018-05-17T06:51:00.292Z,3.30
2018-05-17T06:53:28.606Z,2.85
2018-05-17T06:55:56.885Z,3.12
2018-05-17T06:58:25.081Z,2.67
2018-05-17T07:00:53.398Z,2.20
2018-05-17T07:03:21.674Z,2.05
2018-05-17T07:05:49.861Z,2.12
2018-05-17T07:08:17.976Z,2.30
2018-05-17T07:10:46.055Z,2.58
2018-05-17T07:13:14.241Z,2.47
2018-05-17T07:15:42.350Z,2.00
2018-05-17T07:18:10.684Z,2.67
2018-05-17T07:20:38.845Z,2.80
2018-05-17T07:23:07.033Z,2.65
2018-05-17T07:25:35.120Z,2.53
2018-05-17T07:28:03.513Z,2.17
2018-05-17T07:30:31.602Z,2.42
2018-05-17T07:32:59.906Z,2.08
2018-05-17T07:35:28.195Z,2.03
2018-05-17T07:37:56.507Z,2.30
2018-05-17T07:40:24.802Z,1.95
2018-05-17T07:42:53.098Z,1.90
2018-05-17T07:45:21.219Z,1.80
2018-05-17T07:47:49.373Z,1.98
2018-05-17T07:50:17.491Z,2.72
2018-05-17T07:52:45.568Z,2.35
2018-05-17T07:55:14.581Z,2.40
2018-05-17T07:57:42.761Z,2.30
2018-05-17T08:00:10.863Z,2.10
2018-05-17T08:02:39.080Z,1.80
2018-05-17T08:05:07.348Z,1.85
2018-05-17T08:07:35.445Z,2.10
2018-05-17T08:10:03.849Z,1.40
2018-05-17T08:12:32.035Z,1.23
2018-05-17T08:15:00.236Z,1.40
2018-05-17T08:17:28.337Z,1.40
2018-05-17T08:19:56.631Z,1.10
2018-05-17T08:22:24.927Z,1.40
2018-05-17T08:24:53.121Z,1.53
2018-05-17T08:27:21.214Z,1.70
2018-05-17T08:29:49.507Z,1.30
2018-05-17T08:32:17.502Z,1.67
2018-05-17T08:34:45.585Z,1.67
2018-05-17T08:37:13.679Z,1.50
2018-05-17T08:39:41.885Z,1.60
2018-05-17T08:42:09.970Z,1.67
2018-05-17T08:44:38.169Z,1.60
2018-05-17T08:47:06.244Z,1.90
2018-05-17T08:49:34.447Z,1.60
2018-05-17T08:52:02.649Z,1.40
2018-05-17T08:54:31.044Z,1.57
2018-05-17T08:56:59.328Z,1.93
2018-05-17T08:59:27.526Z,1.37
2018-05-17T09:01:55.623Z,2.43
2018-05-17T09:04:23.822Z,1.40
2018-05-17T09:06:52.010Z,1.20
2018-05-17T09:09:20.293Z,1.40
2018-05-17T09:11:48.506Z,1.17
2018-05-17T09:14:16.689Z,1.40
2018-05-17T09:16:44.696Z,1.67
2018-05-17T09:19:12.878Z,1.80
2018-05-17T09:21:40.973Z,1.40
2018-05-17T09:24:09.162Z,1.57
2018-05-17T09:26:37.353Z,1.73
2018-05-17T09:29:05.659Z,1.70
2018-05-17T09:31:33.852Z,1.53
2018-05-17T09:34:02.249Z,1.47
2018-05-17T09:36:30.442Z,1.07
2018-05-17T09:38:58.732Z,1.13
2018-05-17T09:41:26.961Z,1.20
2018-05-17T09:43:55.227Z,1.23
2018-05-17T09:46:23.425Z,0.90
2018-05-17T09:48:51.632Z,1.27
2018-05-17T09:51:19.811Z,1.07
2018-05-17T09:53:48.016Z,0.93
2018-05-17T09:56:16.296Z,1.10
2018-05-17T09:58:44.437Z,1.10
2018-05-17T10:01:12.443Z,1.10
2018-05-17T10:03:40.681Z,0.80
2018-05-17T10:06:08.889Z,0.90
2018-05-17T10:08:37.290Z,1.00
2018-05-17T10:11:06.495Z,0.80
2018-05-17T10:13:34.695Z,0.80
2018-05-17T10:16:03.006Z,0.90
2018-05-17T10:18:31.297Z,0.87
2018-05-17T10:20:59.692Z,0.90
2018-05-17T10:23:28.584Z,1.00
2018-05-17T10:25:56.890Z,0.80
2018-05-17T10:28:24.993Z,1.03
2018-05-17T10:30:53.584Z,0.90
2018-05-17T10:33:21.677Z,1.13
2018-05-17T10:35:49.872Z,0.63
2018-05-17T10:38:17.863Z,0.73
2018-05-17T10:40:45.957Z,1.00
2018-05-17T10:43:14.149Z,0.80
2018-05-17T10:45:42.339Z,0.90
2018-05-17T10:48:10.435Z,1.00
2018-05-17T10:50:38.730Z,0.70
2018-05-17T10:53:07.035Z,0.77
2018-05-17T10:55:35.222Z,0.93
2018-05-17T10:58:03.416Z,0.90
2018-05-17T11:00:31.812Z,0.97
2018-05-17T11:02:59.906Z,0.80
2018-05-17T11:05:28.112Z,1.00
2018-05-17T11:07:56.402Z,0.70
2018-05-17T11:10:24.600Z,0.90
2018-05-17T11:12:52.887Z,0.70
2018-05-17T11:15:21.119Z,0.90
2018-05-17T11:17:49.389Z,0.87
2018-05-17T11:20:17.672Z,1.17
2018-05-17T11:22:45.703Z,1.00
2018-05-17T11:25:13.968Z,0.73
2018-05-17T11:27:42.272Z,0.60
2018-05-17T11:30:10.648Z,0.90
2018-05-17T11:32:38.859Z,0.60
2018-05-17T11:35:07.144Z,0.70
2018-05-17T11:37:35.346Z,0.80
2018-05-17T11:40:03.738Z,0.80
2018-05-17T11:42:31.835Z,0.60
2018-05-17T11:45:00.032Z,0.60
2018-05-17T11:47:28.217Z,0.73
2018-05-17T11:49:56.427Z,0.80
2018-05-17T11:52:24.609Z,0.80
2018-05-17T11:54:52.806Z,0.83
2018-05-17T11:57:20.907Z,0.87
2018-05-17T11:59:49.088Z,1.07
2018-05-17T12:02:17.193Z,1.30
2018-05-17T12:04:45.310Z,1.07
2018-05-17T12:07:13.447Z,1.37
2018-05-17T12:09:41.571Z,1.10
2018-05-17T12:12:09.771Z,0.83
2018-05-17T12:14:37.950Z,1.03
2018-05-17T12:17:06.150Z,1.00
2018-05-17T12:19:34.350Z,1.00
2018-05-17T12:22:02.538Z,1.00
2018-05-17T12:24:30.730Z,1.20
2018-05-17T12:26:58.930Z,1.13
2018-05-17T12:29:27.010Z,0.90
2018-05-17T12:31:55.177Z,1.33
2018-05-17T12:34:23.309Z,1.00
2018-05-17T12:36:51.426Z,1.03
2018-05-17T12:39:19.686Z,1.20
2018-05-17T12:41:47.783Z,1.23
2018-05-17T12:44:15.882Z,1.27
2018-05-17T12:46:44.283Z,1.17
2018-05-17T12:49:12.609Z,1.27
2018-05-17T12:51:40.866Z,1.20
2018-05-17T12:54:08.963Z,1.03
2018-05-17T12:56:37.053Z,1.33
2018-05-17T12:59:05.258Z,1.37
2018-05-17T13:01:33.337Z,1.30
2018-05-17T13:04:01.637Z,1.17
2018-05-17T13:06:29.834Z,1.10
2018-05-17T13:08:57.917Z,1.00
2018-05-17T13:11:26.211Z,1.10
2018-05-17T13:13:54.305Z,0.90
2018-05-17T13:16:22.393Z,1.00
2018-05-17T13:18:50.489Z,1.00
2018-05-17T13:21:18.695Z,1.37
2018-05-17T13:23:46.877Z,1.00
2018-05-17T13:26:15.087Z,1.20
2018-05-17T13:28:43.373Z,1.13
2018-05-17T13:31:12.206Z,1.53
2018-05-17T13:33:40.489Z,1.00
2018-05-17T13:36:08.893Z,1.00
2018-05-17T13:38:37.183Z,1.07
2018-05-17T13:41:05.470Z,1.10
2018-05-17T13:43:33.660Z,1.20
2018-05-17T13:46:01.756Z,1.20
2018-05-17T13:48:30.052Z,1.70
2018-05-17T13:50:58.250Z,1.00
2018-05-17T13:53:26.349Z,1.40
2018-05-17T13:55:54.531Z,1.30
2018-05-17T13:58:22.619Z,1.10
2018-05-17T14:00:50.817Z,1.60
2018-05-17T14:03:19.012Z,1.07
2018-05-17T14:05:47.123Z,1.10
2018-05-17T14:08:15.402Z,1.30
2018-05-17T14:10:43.699Z,1.33
2018-05-17T14:13:12.004Z,1.40
2018-05-17T14:15:40.187Z,1.03
2018-05-17T14:18:08.398Z,1.33
2018-05-17T14:20:36.682Z,1.40
2018-05-17T14:23:05.021Z,1.30
2018-05-17T14:25:33.184Z,1.20
2018-05-17T14:28:01.477Z,1.10
2018-05-17T14:30:29.572Z,0.80
2018-05-17T14:32:57.851Z,1.10
2018-05-17T14:35:26.061Z,1.47
2018-05-17T14:37:54.150Z,1.00
2018-05-17T14:40:22.353Z,1.20
2018-05-17T14:42:50.632Z,0.90
2018-05-17T14:45:18.735Z,1.43
2018-05-17T14:47:47.125Z,0.83
2018-05-17T14:50:15.841Z,1.37
2018-05-17T14:52:44.123Z,1.27
2018-05-17T14:55:12.385Z,1.20
2018-05-17T14:57:40.727Z,1.50
2018-05-17T15:00:09.021Z,1.50
2018-05-17T15:02:37.129Z,1.90
2018-05-17T15:05:05.202Z,1.23
2018-05-17T15:07:33.407Z,1.00
2018-05-17T15:10:01.505Z,1.00
2018-05-17T15:12:29.692Z,1.40
2018-05-17T15:14:58.008Z,1.10
2018-05-17T15:17:26.482Z,1.53
2018-05-17T15:19:54.584Z,1.07
2018-05-17T15:22:22.679Z,1.40
2018-05-17T15:24:50.856Z,1.53
2018-05-17T15:27:19.061Z,0.87
2018-05-17T15:29:47.297Z,1.47
2018-05-17T15:32:15.555Z,1.37
2018-05-17T15:34:43.747Z,1.30
2018-05-17T15:37:11.884Z,0.80
2018-05-17T15:39:40.137Z,1.20
2018-05-17T15:42:08.435Z,1.27
2018-05-17T15:44:36.825Z,1.10
2018-05-17T15:47:04.925Z,1.20
2018-05-17T15:49:33.331Z,1.00
2018-05-17T15:52:01.624Z,1.20
2018-05-17T15:54:29.712Z,1.47
2018-05-17T15:56:57.901Z,0.97
2018-05-17T15:59:25.997Z,1.20
2018-05-17T16:01:54.195Z,1.23
2018-05-17T16:04:22.497Z,1.00
2018-05-17T16:06:51.810Z,1.07
2018-05-17T16:09:20.008Z,0.83
2018-05-17T16:11:48.199Z,1.20
2018-05-17T16:14:16.502Z,1.17
2018-05-17T16:16:44.621Z,0.90
2018-05-17T16:19:12.613Z,1.30
2018-05-17T16:21:40.670Z,1.00
2018-05-17T16:24:08.753Z,0.93
2018-05-17T16:26:36.956Z,1.30
2018-05-17T16:29:05.034Z,1.40
2018-05-17T16:31:33.233Z,1.17
2018-05-17T16:34:01.451Z,1.40
2018-05-17T16:36:29.761Z,1.30
2018-05-17T16:38:57.942Z,2.17
2018-05-17T16:41:26.114Z,1.70
2018-05-17T16:43:54.194Z,2.50
2018-05-17T16:46:22.402Z,2.23
2018-05-17T16:48:50.494Z,1.30
2018-05-17T16:51:18.698Z,1.70
2018-05-17T16:53:46.695Z,1.10
2018-05-17T16:56:14.860Z,1.30
2018-05-17T16:58:43.073Z,1.77
2018-05-17T17:01:11.277Z,2.10
2018-05-17T17:03:39.293Z,1.47
2018-05-17T17:06:07.341Z,1.60
2018-05-17T17:08:36.354Z,1.63
2018-05-17T17:11:04.577Z,1.20
2018-05-17T17:13:32.959Z,1.63
2018-05-17T17:16:01.251Z,1.67
2018-05-17T17:18:29.551Z,1.47
2018-05-17T17:20:57.632Z,1.57
2018-05-17T17:23:25.929Z,1.87
2018-05-17T17:25:54.129Z,1.80
2018-05-17T17:28:22.427Z,1.23
2018-05-17T17:30:50.760Z,1.53
2018-05-17T17:33:19.124Z,1.97
2018-05-17T17:35:47.215Z,1.92
2018-05-17T17:38:15.398Z,1.60
2018-05-17T17:40:43.512Z,1.33
2018-05-17T17:43:11.615Z,2.10
2018-05-17T17:45:39.788Z,1.50
2018-05-17T17:48:07.976Z,1.50
2018-05-17T17:50:36.170Z,1.33
2018-05-17T17:53:04.370Z,1.45
2018-05-17T17:55:32.552Z,1.90
2018-05-17T17:58:00.770Z,1.53
2018-05-17T18:00:30.078Z,1.35
2018-05-17T18:02:58.263Z,1.90
2018-05-17T18:05:26.516Z,1.90
2018-05-17T18:07:54.771Z,2.03
2018-05-17T18:10:23.154Z,1.50
2018-05-17T18:12:51.360Z,1.40
2018-05-17T18:15:19.649Z,1.35
2018-05-17T18:17:47.953Z,1.65
2018-05-17T18:20:16.252Z,1.70
2018-05-17T18:22:44.363Z,2.22
2018-05-17T18:25:12.382Z,1.40
2018-05-17T18:27:40.627Z,1.98
2018-05-17T18:30:08.734Z,1.40
2018-05-17T18:32:36.970Z,1.55
2018-05-17T18:35:05.209Z,1.67
2018-05-17T18:37:33.408Z,1.48
2018-05-17T18:40:01.609Z,1.40
2018-05-17T18:42:29.775Z,1.33
2018-05-17T18:44:57.895Z,2.00
2018-05-17T18:47:26.060Z,1.50
2018-05-17T18:49:54.176Z,1.20
2018-05-17T18:52:22.455Z,1.33
2018-05-17T18:54:50.571Z,1.52
2018-05-17T18:57:18.755Z,1.40
2018-05-17T18:59:46.855Z,1.70
2018-05-17T19:02:15.115Z,2.28
2018-05-17T19:04:43.234Z,2.00
2018-05-17T19:07:11.335Z,6.22
2018-05-17T19:09:39.315Z,2.05
2018-05-17T19:12:07.495Z,1.95
2018-05-17T19:14:35.594Z,2.25
2018-05-17T19:17:03.695Z,1.60
2018-05-17T19:19:31.897Z,1.70
2018-05-17T19:21:59.982Z,1.80
2018-05-17T19:24:28.182Z,1.95
2018-05-17T19:26:56.260Z,1.90
2018-05-17T19:29:24.460Z,1.85
2018-05-17T19:31:52.659Z,1.80
2018-05-17T19:34:20.960Z,1.83
2018-05-17T19:36:49.040Z,2.50
2018-05-17T19:39:17.241Z,2.17
2018-05-17T19:41:45.568Z,2.10
2018-05-17T19:44:13.620Z,2.17
2018-05-17T19:46:41.821Z,2.05
2018-05-17T19:49:10.020Z,2.05
2018-05-17T19:51:38.202Z,2.20
2018-05-17T19:54:06.302Z,1.90
2018-05-17T19:56:34.800Z,2.00
2018-05-17T19:59:02.998Z,1.87
2018-05-17T20:01:31.198Z,1.80
2018-05-17T20:03:59.399Z,2.10
2018-05-17T20:06:27.687Z,1.80
2018-05-17T20:08:55.877Z,2.47
2018-05-17T20:11:24.209Z,2.03
2018-05-17T20:13:52.373Z,1.60
2018-05-17T20:16:20.560Z,1.60
2018-05-17T20:18:48.780Z,1.67
2018-05-17T20:21:17.053Z,2.22
2018-05-17T20:23:45.255Z,1.83
2018-05-17T20:26:13.342Z,1.73
2018-05-17T20:28:41.534Z,1.90
2018-05-17T20:31:09.736Z,1.73
2018-05-17T20:33:37.917Z,1.80
2018-05-17T20:36:05.976Z,1.73
2018-05-17T20:38:34.109Z,1.98
2018-05-17T20:41:02.409Z,1.60
2018-05-17T20:43:30.709Z,1.45
2018-05-17T20:45:58.888Z,1.45
2018-05-17T20:48:27.186Z,1.77
2018-05-17T20:50:55.290Z,1.90
2018-05-17T20:53:23.381Z,1.55
2018-05-17T20:55:51.669Z,2.20
2018-05-17T20:58:19.867Z,1.65
2018-05-17T21:00:48.069Z,1.23
2018-05-17T21:03:16.261Z,1.40
2018-05-17T21:05:44.765Z,1.90
2018-05-17T21:08:13.043Z,1.85
2018-05-17T21:10:41.245Z,1.60
2018-05-17T21:13:09.439Z,1.90
2018-05-17T21:15:37.529Z,1.70
2018-05-17T21:18:05.586Z,2.15
2018-05-17T21:20:33.561Z,1.52
2018-05-17T21:23:01.804Z,1.48
2018-05-17T21:25:29.903Z,2.50
2018-05-17T21:27:58.307Z,2.10
2018-05-17T21:30:26.507Z,1.75
2018-05-17T21:32:54.890Z,1.48
2018-05-17T21:35:24.120Z,2.45
2018-05-17T21:37:52.309Z,1.67
2018-05-17T21:40:20.505Z,1.83
2018-05-17T21:42:48.593Z,1.98
2018-05-17T21:45:16.884Z,1.95
2018-05-17T21:47:44.985Z,1.30
2018-05-17T21:50:13.183Z,1.62
2018-05-17T21:52:41.278Z,1.90
2018-05-17T21:55:09.467Z,1.62
2018-05-17T21:57:37.654Z,2.20
2018-05-17T22:00:05.702Z,1.50
2018-05-17T22:02:33.848Z,1.70
2018-05-17T22:05:02.135Z,2.03
2018-05-17T22:07:30.533Z,2.00
2018-05-17T22:09:58.727Z,1.92
2018-05-17T22:12:26.829Z,1.87
2018-05-17T22:14:55.028Z,2.00
2018-05-17T22:17:23.215Z,2.20
2018-05-17T22:19:51.404Z,1.70
2018-05-17T22:22:19.506Z,1.87
2018-05-17T22:24:47.697Z,2.10
2018-05-17T22:27:15.785Z,1.95
2018-05-17T22:29:43.982Z,1.75
2018-05-17T22:32:12.186Z,2.00
2018-05-17T22:34:40.361Z,1.60
2018-05-17T22:37:08.552Z,1.65
2018-05-17T22:39:36.866Z,1.73
2018-05-17T22:42:05.148Z,1.87
2018-05-17T22:44:33.352Z,1.50
2018-05-17T22:47:01.644Z,1.55
2018-05-17T22:49:29.946Z,2.08
2018-05-17T22:51:58.131Z,1.98
2018-05-17T22:54:26.325Z,2.10
2018-05-17T22:56:54.423Z,2.40
2018-05-17T22:59:22.723Z,2.17
2018-05-17T23:01:50.910Z,2.15
2018-05-17T23:04:19.105Z,2.45
2018-05-17T23:06:47.293Z,2.45
2018-05-17T23:09:15.506Z,2.17
2018-05-17T23:11:43.601Z,2.40
2018-05-17T23:14:11.788Z,2.33
2018-05-17T23:16:39.987Z,2.47
2018-05-17T23:19:08.372Z,2.35
2018-05-17T23:21:36.670Z,2.80
2018-05-17T23:24:04.963Z,2.40
2018-05-17T23:26:32.992Z,3.22
2018-05-17T23:29:01.257Z,2.65
2018-05-17T23:31:29.548Z,2.87
2018-05-17T23:33:57.849Z,2.62
2018-05-17T23:36:25.944Z,3.47
2018-05-17T23:38:53.930Z,3.55
2018-05-17T23:41:22.136Z,2.95
2018-05-17T23:43:50.325Z,3.10
2018-05-17T23:46:18.509Z,3.00
2018-05-17T23:48:46.609Z,4.07
2018-05-17T23:51:14.802Z,2.58
2018-05-17T23:53:42.891Z,3.20
2018-05-17T23:56:11.088Z,3.00
2018-05-17T23:58:39.384Z,2.70
